Terminal Aerodrome Forecast
Issued by NWS

Home | Current Version | Previous Version | Text Only | Print | Product List | Glossary On
Versions: 1 2 3 4 5 6 7 8 9 10 11 12 13 14 15
449
FTUS42 KILM 102320
TAFCRE
TAF
KCRE 102320Z 1100/1124 29011G18KT P6SM SKC
     FM110100 28009KT P6SM SKC
     FM112300 26002KT P6SM SKC=

USA.gov is the U.S. government's official web portal to all federal, state and local government web resources and services.